sensor_id;sensor_type;location;lat;lon;timestamp;P1;durP1;ratioP1;P2;durP2;ratioP2
37701;SDS011;23548;51.196;6.838;2023-08-17T00:01:47;11.13;;;7.93;;
37701;SDS011;23548;51.196;6.838;2023-08-17T00:04:13;10.25;;;8.77;;
37701;SDS011;23548;51.196;6.838;2023-08-17T00:06:39;10.18;;;9.00;;
37701;SDS011;23548;51.196;6.838;2023-08-17T00:09:05;11.60;;;9.50;;
37701;SDS011;23548;51.196;6.838;2023-08-17T00:11:32;10.00;;;9.00;;
37701;SDS011;23548;51.196;6.838;2023-08-17T00:13:58;12.73;;;9.95;;
37701;SDS011;23548;51.196;6.838;2023-08-17T00:16:24;11.35;;;9.77;;
37701;SDS011;23548;51.196;6.838;2023-08-17T00:18:50;11.88;;;10.15;;
37701;SDS011;23548;51.196;6.838;2023-08-17T00:21:16;13.27;;;10.88;;
37701;SDS011;23548;51.196;6.838;2023-08-17T00:23:42;10.90;;;9.38;;
37701;SDS011;23548;51.196;6.838;2023-08-17T00:26:08;12.52;;;10.82;;
37701;SDS011;23548;51.196;6.838;2023-08-17T00:28:34;11.10;;;10.10;;
37701;SDS011;23548;51.196;6.838;2023-08-17T00:31:00;11.68;;;10.32;;
37701;SDS011;23548;51.196;6.838;2023-08-17T00:33:26;13.30;;;10.48;;
37701;SDS011;23548;51.196;6.838;2023-08-17T00:35:52;11.23;;;10.20;;
37701;SDS011;23548;51.196;6.838;2023-08-17T00:38:18;14.82;;;10.45;;
37701;SDS011;23548;51.196;6.838;2023-08-17T00:40:44;11.52;;;10.43;;
37701;SDS011;23548;51.196;6.838;2023-08-17T00:43:10;11.23;;;10.18;;
37701;SDS011;23548;51.196;6.838;2023-08-17T00:45:36;16.55;;;10.23;;
37701;SDS011;23548;51.196;6.838;2023-08-17T00:48:02;18.00;;;10.68;;
37701;SDS011;23548;51.196;6.838;2023-08-17T00:50:32;16.42;;;9.77;;
37701;SDS011;23548;51.196;6.838;2023-08-17T00:52:59;13.98;;;9.98;;
37701;SDS011;23548;51.196;6.838;2023-08-17T00:55:26;10.55;;;9.55;;
37701;SDS011;23548;51.196;6.838;2023-08-17T00:57:52;10.35;;;9.43;;
37701;SDS011;23548;51.196;6.838;2023-08-17T01:00:20;15.68;;;9.95;;
37701;SDS011;23548;51.196;6.838;2023-08-17T01:02:47;10.20;;;9.20;;
37701;SDS011;23548;51.196;6.838;2023-08-17T01:05:13;11.57;;;9.63;;
37701;SDS011;23548;51.196;6.838;2023-08-17T01:07:39;12.57;;;10.00;;
37701;SDS011;23548;51.196;6.838;2023-08-17T01:10:05;12.00;;;10.73;;
37701;SDS011;23548;51.196;6.838;2023-08-17T01:12:36;11.57;;;9.90;;
37701;SDS011;23548;51.196;6.838;2023-08-17T01:15:56;12.00;;;10.30;;
37701;SDS011;23548;51.196;6.838;2023-08-17T01:18:21;12.88;;;9.73;;
37701;SDS011;23548;51.196;6.838;2023-08-17T01:24:02;12.25;;;10.25;;
37701;SDS011;23548;51.196;6.838;2023-08-17T01:26:28;16.15;;;10.63;;
37701;SDS011;23548;51.196;6.838;2023-08-17T01:28:54;11.68;;;10.07;;
37701;SDS011;23548;51.196;6.838;2023-08-17T01:31:25;14.23;;;10.80;;
37701;SDS011;23548;51.196;6.838;2023-08-17T01:34:04;10.85;;;9.75;;
37701;SDS011;23548;51.196;6.838;2023-08-17T01:39:02;12.48;;;10.45;;
37701;SDS011;23548;51.196;6.838;2023-08-17T01:41:29;13.93;;;9.82;;
37701;SDS011;23548;51.196;6.838;2023-08-17T01:43:57;15.18;;;9.82;;
37701;SDS011;23548;51.196;6.838;2023-08-17T01:46:24;10.13;;;9.13;;
37701;SDS011;23548;51.196;6.838;2023-08-17T01:48:54;12.32;;;9.43;;
37701;SDS011;23548;51.196;6.838;2023-08-17T01:51:21;12.07;;;8.77;;
37701;SDS011;23548;51.196;6.838;2023-08-17T01:53:47;10.32;;;8.77;;
37701;SDS011;23548;51.196;6.838;2023-08-17T01:56:13;12.60;;;8.90;;
37701;SDS011;23548;51.196;6.838;2023-08-17T01:58:39;11.27;;;8.65;;
37701;SDS011;23548;51.196;6.838;2023-08-17T02:01:04;9.30;;;8.00;;
37701;SDS011;23548;51.196;6.838;2023-08-17T02:03:30;11.43;;;8.18;;
37701;SDS011;23548;51.196;6.838;2023-08-17T02:05:57;12.40;;;7.60;;
37701;SDS011;23548;51.196;6.838;2023-08-17T02:08:23;10.88;;;8.35;;
37701;SDS011;23548;51.196;6.838;2023-08-17T02:10:49;8.38;;;7.50;;
37701;SDS011;23548;51.196;6.838;2023-08-17T02:13:15;11.50;;;8.40;;
37701;SDS011;23548;51.196;6.838;2023-08-17T02:15:41;8.85;;;7.35;;
37701;SDS011;23548;51.196;6.838;2023-08-17T02:18:07;9.25;;;7.78;;
37701;SDS011;23548;51.196;6.838;2023-08-17T02:20:33;9.00;;;8.15;;
37701;SDS011;23548;51.196;6.838;2023-08-17T02:23:00;9.55;;;7.22;;
37701;SDS011;23548;51.196;6.838;2023-08-17T02:25:26;8.45;;;7.30;;
37701;SDS011;23548;51.196;6.838;2023-08-17T02:27:52;8.18;;;7.43;;
37701;SDS011;23548;51.196;6.838;2023-08-17T02:30:18;9.13;;;6.70;;
37701;SDS011;23548;51.196;6.838;2023-08-17T02:32:44;12.18;;;7.20;;
37701;SDS011;23548;51.196;6.838;2023-08-17T02:35:10;8.60;;;6.75;;
37701;SDS011;23548;51.196;6.838;2023-08-17T02:37:36;10.75;;;7.70;;
37701;SDS011;23548;51.196;6.838;2023-08-17T02:40:02;11.35;;;7.07;;
37701;SDS011;23548;51.196;6.838;2023-08-17T02:42:29;8.32;;;7.53;;
37701;SDS011;23548;51.196;6.838;2023-08-17T02:44:55;8.32;;;7.50;;
37701;SDS011;23548;51.196;6.838;2023-08-17T02:47:20;9.57;;;8.45;;
37701;SDS011;23548;51.196;6.838;2023-08-17T02:49:46;12.55;;;9.07;;
37701;SDS011;23548;51.196;6.838;2023-08-17T02:52:14;10.93;;;9.52;;
37701;SDS011;23548;51.196;6.838;2023-08-17T02:54:40;12.82;;;10.20;;
37701;SDS011;23548;51.196;6.838;2023-08-17T02:57:05;12.90;;;9.63;;
37701;SDS011;23548;51.196;6.838;2023-08-17T02:59:31;12.35;;;10.15;;
37701;SDS011;23548;51.196;6.838;2023-08-17T03:01:57;10.38;;;9.23;;
37701;SDS011;23548;51.196;6.838;2023-08-17T03:04:23;11.55;;;8.88;;
37701;SDS011;23548;51.196;6.838;2023-08-17T03:06:49;14.93;;;10.55;;
37701;SDS011;23548;51.196;6.838;2023-08-17T03:09:15;11.65;;;9.68;;
37701;SDS011;23548;51.196;6.838;2023-08-17T03:11:40;11.38;;;9.60;;
37701;SDS011;23548;51.196;6.838;2023-08-17T03:14:06;12.60;;;10.40;;
37701;SDS011;23548;51.196;6.838;2023-08-17T03:16:32;11.90;;;9.05;;
37701;SDS011;23548;51.196;6.838;2023-08-17T03:18:58;11.15;;;9.50;;
37701;SDS011;23548;51.196;6.838;2023-08-17T03:21:23;11.50;;;9.88;;
37701;SDS011;23548;51.196;6.838;2023-08-17T03:23:49;10.57;;;8.93;;
37701;SDS011;23548;51.196;6.838;2023-08-17T03:26:15;11.98;;;9.88;;
37701;SDS011;23548;51.196;6.838;2023-08-17T03:28:41;12.02;;;9.68;;
37701;SDS011;23548;51.196;6.838;2023-08-17T03:31:07;10.75;;;9.63;;
37701;SDS011;23548;51.196;6.838;2023-08-17T03:33:34;12.07;;;9.90;;
37701;SDS011;23548;51.196;6.838;2023-08-17T03:36:00;13.63;;;10.55;;
37701;SDS011;23548;51.196;6.838;2023-08-17T03:38:26;15.88;;;10.57;;
37701;SDS011;23548;51.196;6.838;2023-08-17T03:40:52;15.57;;;13.00;;
37701;SDS011;23548;51.196;6.838;2023-08-17T03:43:18;15.38;;;11.90;;
37701;SDS011;23548;51.196;6.838;2023-08-17T03:45:43;19.00;;;14.38;;
37701;SDS011;23548;51.196;6.838;2023-08-17T03:48:09;19.58;;;15.55;;
37701;SDS011;23548;51.196;6.838;2023-08-17T03:50:35;21.88;;;16.88;;
37701;SDS011;23548;51.196;6.838;2023-08-17T03:53:01;23.50;;;18.40;;
37701;SDS011;23548;51.196;6.838;2023-08-17T03:55:27;31.10;;;21.45;;
37701;SDS011;23548;51.196;6.838;2023-08-17T03:57:53;28.67;;;21.10;;
37701;SDS011;23548;51.196;6.838;2023-08-17T04:00:18;31.15;;;22.05;;
37701;SDS011;23548;51.196;6.838;2023-08-17T04:02:44;26.77;;;21.10;;
37701;SDS011;23548;51.196;6.838;2023-08-17T04:05:10;26.80;;;22.50;;
37701;SDS011;23548;51.196;6.838;2023-08-17T04:07:36;31.55;;;23.60;;
37701;SDS011;23548;51.196;6.838;2023-08-17T04:10:02;29.98;;;25.55;;
37701;SDS011;23548;51.196;6.838;2023-08-17T04:12:29;32.78;;;24.80;;
37701;SDS011;23548;51.196;6.838;2023-08-17T04:14:54;33.65;;;25.33;;
37701;SDS011;23548;51.196;6.838;2023-08-17T04:17:20;32.20;;;25.95;;
37701;SDS011;23548;51.196;6.838;2023-08-17T04:19:46;35.22;;;26.52;;
37701;SDS011;23548;51.196;6.838;2023-08-17T04:22:12;35.80;;;27.17;;
37701;SDS011;23548;51.196;6.838;2023-08-17T04:24:38;35.50;;;26.25;;
37701;SDS011;23548;51.196;6.838;2023-08-17T04:27:04;32.80;;;26.70;;
37701;SDS011;23548;51.196;6.838;2023-08-17T04:29:30;35.30;;;27.90;;
37701;SDS011;23548;51.196;6.838;2023-08-17T04:31:56;32.50;;;26.00;;
37701;SDS011;23548;51.196;6.838;2023-08-17T04:34:22;35.53;;;25.45;;
37701;SDS011;23548;51.196;6.838;2023-08-17T04:36:49;33.65;;;25.48;;
37701;SDS011;23548;51.196;6.838;2023-08-17T04:39:15;35.08;;;25.10;;
37701;SDS011;23548;51.196;6.838;2023-08-17T04:41:40;36.38;;;25.20;;
37701;SDS011;23548;51.196;6.838;2023-08-17T04:44:06;32.75;;;24.90;;
37701;SDS011;23548;51.196;6.838;2023-08-17T04:46:32;32.75;;;24.02;;
37701;SDS011;23548;51.196;6.838;2023-08-17T04:48:58;31.05;;;25.42;;
37701;SDS011;23548;51.196;6.838;2023-08-17T04:51:24;30.90;;;23.95;;
37701;SDS011;23548;51.196;6.838;2023-08-17T04:53:49;29.88;;;24.95;;
37701;SDS011;23548;51.196;6.838;2023-08-17T04:56:15;30.58;;;24.77;;
37701;SDS011;23548;51.196;6.838;2023-08-17T04:58:41;32.88;;;24.20;;
37701;SDS011;23548;51.196;6.838;2023-08-17T05:01:07;31.35;;;25.13;;
37701;SDS011;23548;51.196;6.838;2023-08-17T05:03:32;30.52;;;25.13;;
37701;SDS011;23548;51.196;6.838;2023-08-17T05:05:58;32.33;;;25.42;;
37701;SDS011;23548;51.196;6.838;2023-08-17T05:08:24;34.33;;;23.95;;
37701;SDS011;23548;51.196;6.838;2023-08-17T05:10:50;29.48;;;23.58;;
37701;SDS011;23548;51.196;6.838;2023-08-17T05:13:16;27.45;;;21.67;;
37701;SDS011;23548;51.196;6.838;2023-08-17T05:15:42;25.02;;;22.08;;
37701;SDS011;23548;51.196;6.838;2023-08-17T05:18:07;24.45;;;20.77;;
37701;SDS011;23548;51.196;6.838;2023-08-17T05:20:33;31.40;;;21.60;;
37701;SDS011;23548;51.196;6.838;2023-08-17T05:22:59;25.40;;;18.85;;
37701;SDS011;23548;51.196;6.838;2023-08-17T05:25:24;29.35;;;19.20;;
37701;SDS011;23548;51.196;6.838;2023-08-17T05:27:51;25.02;;;18.23;;
37701;SDS011;23548;51.196;6.838;2023-08-17T05:30:17;23.42;;;18.15;;
37701;SDS011;23548;51.196;6.838;2023-08-17T05:32:43;25.27;;;18.67;;
37701;SDS011;23548;51.196;6.838;2023-08-17T05:35:08;26.73;;;19.08;;
37701;SDS011;23548;51.196;6.838;2023-08-17T05:37:34;23.80;;;17.52;;
37701;SDS011;23548;51.196;6.838;2023-08-17T05:40:00;20.27;;;17.73;;
37701;SDS011;23548;51.196;6.838;2023-08-17T05:42:26;24.00;;;16.90;;
37701;SDS011;23548;51.196;6.838;2023-08-17T05:44:51;25.92;;;16.65;;
37701;SDS011;23548;51.196;6.838;2023-08-17T05:47:17;24.45;;;16.80;;
37701;SDS011;23548;51.196;6.838;2023-08-17T05:49:44;32.50;;;17.77;;
37701;SDS011;23548;51.196;6.838;2023-08-17T05:52:10;18.23;;;14.57;;
37701;SDS011;23548;51.196;6.838;2023-08-17T05:54:36;58.45;;;19.70;;
37701;SDS011;23548;51.196;6.838;2023-08-17T05:57:02;44.33;;;18.77;;
37701;SDS011;23548;51.196;6.838;2023-08-17T05:59:28;27.05;;;17.13;;
37701;SDS011;23548;51.196;6.838;2023-08-17T06:01:55;25.17;;;15.18;;
37701;SDS011;23548;51.196;6.838;2023-08-17T06:04:20;32.28;;;16.83;;
37701;SDS011;23548;51.196;6.838;2023-08-17T06:06:46;40.05;;;16.35;;
37701;SDS011;23548;51.196;6.838;2023-08-17T06:09:12;40.47;;;16.33;;
37701;SDS011;23548;51.196;6.838;2023-08-17T06:11:39;70.43;;;19.58;;
37701;SDS011;23548;51.196;6.838;2023-08-17T06:14:06;15.32;;;12.32;;
37701;SDS011;23548;51.196;6.838;2023-08-17T06:16:32;14.32;;;12.27;;
37701;SDS011;23548;51.196;6.838;2023-08-17T06:18:58;23.02;;;13.35;;
37701;SDS011;23548;51.196;6.838;2023-08-17T06:21:23;25.48;;;12.65;;
37701;SDS011;23548;51.196;6.838;2023-08-17T06:23:49;14.95;;;11.70;;
37701;SDS011;23548;51.196;6.838;2023-08-17T06:26:15;20.67;;;12.30;;
37701;SDS011;23548;51.196;6.838;2023-08-17T06:28:41;20.77;;;12.95;;
37701;SDS011;23548;51.196;6.838;2023-08-17T06:31:06;24.35;;;13.50;;
37701;SDS011;23548;51.196;6.838;2023-08-17T06:33:32;22.45;;;12.98;;
37701;SDS011;23548;51.196;6.838;2023-08-17T06:35:58;18.38;;;12.27;;
37701;SDS011;23548;51.196;6.838;2023-08-17T06:38:24;18.35;;;11.45;;
37701;SDS011;23548;51.196;6.838;2023-08-17T06:40:51;15.25;;;12.02;;
37701;SDS011;23548;51.196;6.838;2023-08-17T06:43:17;16.27;;;11.73;;
37701;SDS011;23548;51.196;6.838;2023-08-17T06:45:43;22.40;;;12.23;;
37701;SDS011;23548;51.196;6.838;2023-08-17T06:48:09;16.73;;;11.82;;
37701;SDS011;23548;51.196;6.838;2023-08-17T06:50:35;12.93;;;10.77;;
37701;SDS011;23548;51.196;6.838;2023-08-17T06:53:01;38.55;;;14.02;;
37701;SDS011;23548;51.196;6.838;2023-08-17T06:55:27;16.05;;;10.55;;
37701;SDS011;23548;51.196;6.838;2023-08-17T06:57:53;15.38;;;10.82;;
37701;SDS011;23548;51.196;6.838;2023-08-17T07:00:20;14.75;;;11.48;;
37701;SDS011;23548;51.196;6.838;2023-08-17T07:02:49;16.05;;;11.77;;
37701;SDS011;23548;51.196;6.838;2023-08-17T07:05:15;17.00;;;14.55;;
37701;SDS011;23548;51.196;6.838;2023-08-17T07:07:41;24.52;;;15.02;;
37701;SDS011;23548;51.196;6.838;2023-08-17T07:10:08;19.30;;;13.98;;
37701;SDS011;23548;51.196;6.838;2023-08-17T07:12:35;15.13;;;12.65;;
37701;SDS011;23548;51.196;6.838;2023-08-17T07:15:05;17.80;;;14.13;;
37701;SDS011;23548;51.196;6.838;2023-08-17T07:17:31;16.02;;;12.18;;
37701;SDS011;23548;51.196;6.838;2023-08-17T07:19:59;18.27;;;11.80;;
37701;SDS011;23548;51.196;6.838;2023-08-17T07:22:24;14.07;;;10.35;;
37701;SDS011;23548;51.196;6.838;2023-08-17T07:24:50;22.77;;;11.73;;
37701;SDS011;23548;51.196;6.838;2023-08-17T07:27:16;13.23;;;11.30;;
37701;SDS011;23548;51.196;6.838;2023-08-17T07:29:42;41.40;;;13.50;;
37701;SDS011;23548;51.196;6.838;2023-08-17T07:32:07;14.50;;;10.90;;
37701;SDS011;23548;51.196;6.838;2023-08-17T07:34:34;14.75;;;10.63;;
37701;SDS011;23548;51.196;6.838;2023-08-17T07:37:01;12.50;;;9.25;;
37701;SDS011;23548;51.196;6.838;2023-08-17T07:39:29;11.80;;;9.77;;
37701;SDS011;23548;51.196;6.838;2023-08-17T07:41:58;18.17;;;10.50;;
37701;SDS011;23548;51.196;6.838;2023-08-17T07:44:24;14.43;;;10.07;;
37701;SDS011;23548;51.196;6.838;2023-08-17T07:46:50;11.05;;;9.85;;
37701;SDS011;23548;51.196;6.838;2023-08-17T07:49:16;14.00;;;10.15;;
37701;SDS011;23548;51.196;6.838;2023-08-17T07:51:42;13.52;;;10.27;;
37701;SDS011;23548;51.196;6.838;2023-08-17T07:54:07;18.58;;;10.82;;
37701;SDS011;23548;51.196;6.838;2023-08-17T07:56:33;21.40;;;10.93;;
37701;SDS011;23548;51.196;6.838;2023-08-17T07:58:59;13.02;;;10.45;;
37701;SDS011;23548;51.196;6.838;2023-08-17T08:01:24;14.48;;;10.63;;
37701;SDS011;23548;51.196;6.838;2023-08-17T08:03:50;13.38;;;10.75;;
37701;SDS011;23548;51.196;6.838;2023-08-17T08:06:16;17.30;;;13.73;;
37701;SDS011;23548;51.196;6.838;2023-08-17T08:08:41;16.17;;;12.98;;
37701;SDS011;23548;51.196;6.838;2023-08-17T08:11:09;17.90;;;14.70;;
37701;SDS011;23548;51.196;6.838;2023-08-17T08:13:35;16.17;;;12.30;;
37701;SDS011;23548;51.196;6.838;2023-08-17T08:16:01;14.60;;;11.32;;
37701;SDS011;23548;51.196;6.838;2023-08-17T08:18:27;14.68;;;11.10;;
37701;SDS011;23548;51.196;6.838;2023-08-17T08:20:53;16.02;;;10.65;;
37701;SDS011;23548;51.196;6.838;2023-08-17T08:23:19;14.10;;;11.32;;
37701;SDS011;23548;51.196;6.838;2023-08-17T08:25:44;16.25;;;11.68;;
37701;SDS011;23548;51.196;6.838;2023-08-17T08:28:10;13.45;;;11.00;;
37701;SDS011;23548;51.196;6.838;2023-08-17T08:30:36;14.98;;;11.60;;
37701;SDS011;23548;51.196;6.838;2023-08-17T08:33:02;16.83;;;11.10;;
37701;SDS011;23548;51.196;6.838;2023-08-17T08:35:28;19.70;;;11.55;;
37701;SDS011;23548;51.196;6.838;2023-08-17T08:37:54;13.40;;;10.77;;
37701;SDS011;23548;51.196;6.838;2023-08-17T08:40:27;16.00;;;11.48;;
37701;SDS011;23548;51.196;6.838;2023-08-17T08:42:54;17.85;;;11.50;;
37701;SDS011;23548;51.196;6.838;2023-08-17T08:45:23;20.38;;;11.27;;
37701;SDS011;23548;51.196;6.838;2023-08-17T08:47:50;14.52;;;11.05;;
37701;SDS011;23548;51.196;6.838;2023-08-17T08:50:18;14.32;;;10.98;;
37701;SDS011;23548;51.196;6.838;2023-08-17T08:52:52;15.02;;;11.95;;
37701;SDS011;23548;51.196;6.838;2023-08-17T08:55:25;15.63;;;12.02;;
37701;SDS011;23548;51.196;6.838;2023-08-17T08:57:54;17.10;;;13.60;;
37701;SDS011;23548;51.196;6.838;2023-08-17T09:00:20;17.08;;;11.63;;
37701;SDS011;23548;51.196;6.838;2023-08-17T09:02:47;16.08;;;12.77;;
37701;SDS011;23548;51.196;6.838;2023-08-17T09:05:14;20.77;;;13.25;;
37701;SDS011;23548;51.196;6.838;2023-08-17T09:07:40;14.32;;;11.32;;
37701;SDS011;23548;51.196;6.838;2023-08-17T09:10:08;14.43;;;12.18;;
37701;SDS011;23548;51.196;6.838;2023-08-17T09:12:34;15.70;;;12.32;;
37701;SDS011;23548;51.196;6.838;2023-08-17T09:15:00;13.88;;;12.43;;
37701;SDS011;23548;51.196;6.838;2023-08-17T09:17:26;17.83;;;12.75;;
37701;SDS011;23548;51.196;6.838;2023-08-17T09:19:53;16.92;;;12.30;;
37701;SDS011;23548;51.196;6.838;2023-08-17T09:22:23;19.83;;;12.18;;
37701;SDS011;23548;51.196;6.838;2023-08-17T09:24:49;15.35;;;11.93;;
37701;SDS011;23548;51.196;6.838;2023-08-17T09:27:15;14.65;;;11.73;;
37701;SDS011;23548;51.196;6.838;2023-08-17T09:29:44;15.48;;;12.82;;
37701;SDS011;23548;51.196;6.838;2023-08-17T09:32:11;14.18;;;11.40;;
37701;SDS011;23548;51.196;6.838;2023-08-17T09:34:41;13.57;;;11.15;;
37701;SDS011;23548;51.196;6.838;2023-08-17T09:37:11;14.80;;;11.93;;
37701;SDS011;23548;51.196;6.838;2023-08-17T09:39:38;16.20;;;14.15;;
37701;SDS011;23548;51.196;6.838;2023-08-17T09:42:04;18.08;;;14.15;;
37701;SDS011;23548;51.196;6.838;2023-08-17T09:44:32;17.65;;;14.55;;
37701;SDS011;23548;51.196;6.838;2023-08-17T09:46:59;16.80;;;14.65;;
37701;SDS011;23548;51.196;6.838;2023-08-17T09:49:24;19.17;;;15.07;;
37701;SDS011;23548;51.196;6.838;2023-08-17T09:51:50;21.20;;;15.05;;
37701;SDS011;23548;51.196;6.838;2023-08-17T09:54:20;22.30;;;15.55;;
37701;SDS011;23548;51.196;6.838;2023-08-17T09:56:48;20.65;;;14.70;;
37701;SDS011;23548;51.196;6.838;2023-08-17T09:59:16;18.50;;;15.10;;
37701;SDS011;23548;51.196;6.838;2023-08-17T10:01:42;20.63;;;15.50;;
37701;SDS011;23548;51.196;6.838;2023-08-17T10:04:09;18.83;;;14.60;;
37701;SDS011;23548;51.196;6.838;2023-08-17T10:06:35;17.20;;;14.68;;
37701;SDS011;23548;51.196;6.838;2023-08-17T10:09:04;19.40;;;15.18;;
37701;SDS011;23548;51.196;6.838;2023-08-17T10:11:32;17.65;;;14.68;;
37701;SDS011;23548;51.196;6.838;2023-08-17T10:14:00;16.48;;;14.52;;
37701;SDS011;23548;51.196;6.838;2023-08-17T10:22:16;20.13;;;13.60;;
37701;SDS011;23548;51.196;6.838;2023-08-17T10:24:42;15.48;;;13.05;;
37701;SDS011;23548;51.196;6.838;2023-08-17T10:27:08;14.60;;;12.90;;
37701;SDS011;23548;51.196;6.838;2023-08-17T10:29:36;17.70;;;13.32;;
37701;SDS011;23548;51.196;6.838;2023-08-17T10:32:05;15.23;;;12.43;;
37701;SDS011;23548;51.196;6.838;2023-08-17T10:34:32;15.32;;;12.88;;
37701;SDS011;23548;51.196;6.838;2023-08-17T10:37:00;19.65;;;13.80;;
37701;SDS011;23548;51.196;6.838;2023-08-17T10:39:27;17.80;;;13.15;;
37701;SDS011;23548;51.196;6.838;2023-08-17T10:41:54;20.42;;;15.60;;
37701;SDS011;23548;51.196;6.838;2023-08-17T10:47:31;20.17;;;15.40;;
37701;SDS011;23548;51.196;6.838;2023-08-17T10:50:05;20.08;;;15.50;;
37701;SDS011;23548;51.196;6.838;2023-08-17T10:52:35;22.52;;;16.90;;
37701;SDS011;23548;51.196;6.838;2023-08-17T10:55:05;22.42;;;17.55;;
37701;SDS011;23548;51.196;6.838;2023-08-17T11:02:56;24.23;;;16.77;;
37701;SDS011;23548;51.196;6.838;2023-08-17T11:05:41;22.88;;;16.48;;
37701;SDS011;23548;51.196;6.838;2023-08-17T11:08:11;22.05;;;15.18;;
37701;SDS011;23548;51.196;6.838;2023-08-17T11:13:24;22.13;;;15.00;;
37701;SDS011;23548;51.196;6.838;2023-08-17T11:15:52;20.98;;;14.40;;
37701;SDS011;23548;51.196;6.838;2023-08-17T11:18:18;18.17;;;14.50;;
37701;SDS011;23548;51.196;6.838;2023-08-17T11:20:43;20.77;;;14.82;;
37701;SDS011;23548;51.196;6.838;2023-08-17T11:23:10;21.00;;;14.23;;
37701;SDS011;23548;51.196;6.838;2023-08-17T11:25:36;19.20;;;13.60;;
37701;SDS011;23548;51.196;6.838;2023-08-17T11:28:02;22.25;;;12.50;;
37701;SDS011;23548;51.196;6.838;2023-08-17T11:30:31;24.67;;;14.30;;
37701;SDS011;23548;51.196;6.838;2023-08-17T11:32:59;15.80;;;12.20;;
37701;SDS011;23548;51.196;6.838;2023-08-17T11:35:25;17.25;;;12.65;;
37701;SDS011;23548;51.196;6.838;2023-08-17T11:37:51;15.65;;;12.45;;
37701;SDS011;23548;51.196;6.838;2023-08-17T11:40:17;17.00;;;12.23;;
37701;SDS011;23548;51.196;6.838;2023-08-17T11:42:43;15.90;;;11.85;;
37701;SDS011;23548;51.196;6.838;2023-08-17T11:45:09;18.85;;;13.52;;
37701;SDS011;23548;51.196;6.838;2023-08-17T11:47:39;17.08;;;13.25;;
37701;SDS011;23548;51.196;6.838;2023-08-17T11:50:09;20.75;;;12.75;;
37701;SDS011;23548;51.196;6.838;2023-08-17T11:52:36;17.38;;;12.40;;
37701;SDS011;23548;51.196;6.838;2023-08-17T11:55:03;14.73;;;12.20;;
37701;SDS011;23548;51.196;6.838;2023-08-17T11:57:31;11.77;;;10.52;;
37701;SDS011;23548;51.196;6.838;2023-08-17T11:59:57;17.73;;;12.32;;
37701;SDS011;23548;51.196;6.838;2023-08-17T12:02:25;15.70;;;12.73;;
37701;SDS011;23548;51.196;6.838;2023-08-17T12:04:55;19.73;;;13.30;;
37701;SDS011;23548;51.196;6.838;2023-08-17T12:07:24;30.65;;;14.70;;
37701;SDS011;23548;51.196;6.838;2023-08-17T12:09:50;23.27;;;11.75;;
37701;SDS011;23548;51.196;6.838;2023-08-17T12:12:18;14.75;;;12.27;;
37701;SDS011;23548;51.196;6.838;2023-08-17T12:14:48;13.23;;;11.82;;
37701;SDS011;23548;51.196;6.838;2023-08-17T12:17:14;43.60;;;14.30;;
37701;SDS011;23548;51.196;6.838;2023-08-17T12:19:44;12.07;;;10.68;;
37701;SDS011;23548;51.196;6.838;2023-08-17T12:22:13;12.90;;;11.52;;
37701;SDS011;23548;51.196;6.838;2023-08-17T12:24:39;11.43;;;10.27;;
37701;SDS011;23548;51.196;6.838;2023-08-17T12:27:06;10.43;;;9.43;;
37701;SDS011;23548;51.196;6.838;2023-08-17T12:29:32;14.02;;;9.63;;
37701;SDS011;23548;51.196;6.838;2023-08-17T12:31:58;11.32;;;10.20;;
37701;SDS011;23548;51.196;6.838;2023-08-17T12:34:24;11.25;;;10.15;;
37701;SDS011;23548;51.196;6.838;2023-08-17T12:36:50;11.48;;;10.38;;
37701;SDS011;23548;51.196;6.838;2023-08-17T12:39:16;11.35;;;10.15;;
37701;SDS011;23548;51.196;6.838;2023-08-17T12:41:42;13.23;;;10.63;;
37701;SDS011;23548;51.196;6.838;2023-08-17T12:44:10;11.70;;;10.50;;
37701;SDS011;23548;51.196;6.838;2023-08-17T12:46:39;11.80;;;10.60;;
37701;SDS011;23548;51.196;6.838;2023-08-17T12:49:05;11.93;;;10.15;;
37701;SDS011;23548;51.196;6.838;2023-08-17T12:51:33;11.85;;;9.82;;
37701;SDS011;23548;51.196;6.838;2023-08-17T12:53:59;11.48;;;10.38;;
37701;SDS011;23548;51.196;6.838;2023-08-17T12:56:25;12.07;;;9.90;;
37701;SDS011;23548;51.196;6.838;2023-08-17T12:58:50;10.73;;;9.60;;
37701;SDS011;23548;51.196;6.838;2023-08-17T13:01:16;10.40;;;9.30;;
37701;SDS011;23548;51.196;6.838;2023-08-17T13:03:44;12.95;;;11.20;;
37701;SDS011;23548;51.196;6.838;2023-08-17T13:06:09;14.18;;;12.18;;
37701;SDS011;23548;51.196;6.838;2023-08-17T13:08:35;14.13;;;12.32;;
37701;SDS011;23548;51.196;6.838;2023-08-17T13:11:01;13.38;;;12.02;;
37701;SDS011;23548;51.196;6.838;2023-08-17T13:13:26;13.68;;;12.20;;
37701;SDS011;23548;51.196;6.838;2023-08-17T13:15:52;16.67;;;12.57;;
37701;SDS011;23548;51.196;6.838;2023-08-17T13:18:18;14.30;;;12.80;;
37701;SDS011;23548;51.196;6.838;2023-08-17T13:20:44;14.35;;;12.23;;
37701;SDS011;23548;51.196;6.838;2023-08-17T13:23:10;14.02;;;11.88;;
37701;SDS011;23548;51.196;6.838;2023-08-17T13:25:36;12.63;;;11.10;;
37701;SDS011;23548;51.196;6.838;2023-08-17T13:28:02;13.27;;;11.88;;
37701;SDS011;23548;51.196;6.838;2023-08-17T13:30:28;13.05;;;11.35;;
37701;SDS011;23548;51.196;6.838;2023-08-17T13:32:54;11.48;;;10.25;;
37701;SDS011;23548;51.196;6.838;2023-08-17T13:35:20;12.18;;;10.75;;
37701;SDS011;23548;51.196;6.838;2023-08-17T13:37:50;13.00;;;10.85;;
37701;SDS011;23548;51.196;6.838;2023-08-17T13:40:18;12.55;;;10.77;;
37701;SDS011;23548;51.196;6.838;2023-08-17T13:42:44;12.85;;;10.38;;
37701;SDS011;23548;51.196;6.838;2023-08-17T13:45:10;12.73;;;10.50;;
37701;SDS011;23548;51.196;6.838;2023-08-17T13:47:36;12.40;;;9.63;;
37701;SDS011;23548;51.196;6.838;2023-08-17T13:50:02;10.75;;;9.65;;
37701;SDS011;23548;51.196;6.838;2023-08-17T13:52:28;11.25;;;10.10;;
37701;SDS011;23548;51.196;6.838;2023-08-17T13:54:54;11.60;;;10.45;;
37701;SDS011;23548;51.196;6.838;2023-08-17T13:57:20;13.80;;;10.48;;
37701;SDS011;23548;51.196;6.838;2023-08-17T13:59:46;12.90;;;11.25;;
37701;SDS011;23548;51.196;6.838;2023-08-17T14:02:11;12.75;;;10.48;;
37701;SDS011;23548;51.196;6.838;2023-08-17T14:04:37;12.85;;;10.35;;
37701;SDS011;23548;51.196;6.838;2023-08-17T14:07:03;10.25;;;9.15;;
37701;SDS011;23548;51.196;6.838;2023-08-17T14:09:29;10.25;;;9.25;;
37701;SDS011;23548;51.196;6.838;2023-08-17T14:11:55;9.82;;;8.90;;
37701;SDS011;23548;51.196;6.838;2023-08-17T14:14:21;11.73;;;8.45;;
37701;SDS011;23548;51.196;6.838;2023-08-17T14:16:47;10.07;;;8.75;;
37701;SDS011;23548;51.196;6.838;2023-08-17T14:19:13;11.20;;;9.50;;
37701;SDS011;23548;51.196;6.838;2023-08-17T14:21:38;10.82;;;9.48;;
37701;SDS011;23548;51.196;6.838;2023-08-17T14:24:04;12.05;;;9.30;;
37701;SDS011;23548;51.196;6.838;2023-08-17T14:26:31;11.02;;;9.93;;
37701;SDS011;23548;51.196;6.838;2023-08-17T14:28:57;9.63;;;8.70;;
37701;SDS011;23548;51.196;6.838;2023-08-17T14:31:23;12.90;;;10.27;;
37701;SDS011;23548;51.196;6.838;2023-08-17T14:33:48;9.52;;;8.63;;
37701;SDS011;23548;51.196;6.838;2023-08-17T14:36:15;9.70;;;8.80;;
37701;SDS011;23548;51.196;6.838;2023-08-17T14:38:40;11.02;;;9.00;;
37701;SDS011;23548;51.196;6.838;2023-08-17T14:41:06;11.95;;;8.93;;
37701;SDS011;23548;51.196;6.838;2023-08-17T14:43:33;9.93;;;8.95;;
37701;SDS011;23548;51.196;6.838;2023-08-17T14:45:59;9.63;;;8.32;;